Time;durP1;ratioP1;P1;durP2;ratioP2;P2;SDS_P1;SDS_P2;PMS_P1;PMS_P2;Temp;Humidity;BMP_temperature;BMP_pressure;BME280_temperature;BME280_humidity;BME280_pressure;Samples;Min_cycle;Max_cycle;Signal;HPM_P1;HPM_P2
2022/07/31 00:00:19;;;;;;;19.10;17.10;;;;;;;21.23;75.90;94487.72;4177255;28;20045;-47
2022/07/31 00:02:20;;;;;;;18.48;16.52;;;;;;;21.26;75.74;94489.13;4178049;28;20048;-47
2022/07/31 00:04:22;;;;;;;17.00;15.40;;;;;;;21.25;75.51;94498.97;4177636;28;20126;-46
2022/07/31 00:06:24;;;;;;;16.48;14.90;;;;;;;21.26;75.37;94497.91;4178272;28;20386;-46
2022/07/31 00:08:26;;;;;;;14.48;12.98;;;;;;;21.27;74.68;94483.56;4176762;28;20512;-45
2022/07/31 00:10:28;;;;;;;15.70;13.73;;;;;;;21.28;74.22;94482.50;4178635;28;20048;-45
2022/07/31 00:12:30;;;;;;;15.57;13.35;;;;;;;21.31;73.74;94475.91;4176820;28;20052;-49
2022/07/31 00:14:31;;;;;;;13.82;12.35;;;;;;;21.32;73.64;94482.88;4176259;28;20540;-47
2022/07/31 00:16:33;;;;;;;15.18;13.60;;;;;;;21.37;73.49;94487.50;4189288;28;20056;-48
2022/07/31 00:18:35;;;;;;;14.68;12.30;;;;;;;21.33;73.07;94489.00;4175356;28;20053;-50
2022/07/31 00:20:37;;;;;;;14.80;13.40;;;;;;;21.32;73.41;94498.06;4177128;28;20057;-51
2022/07/31 00:22:39;;;;;;;15.82;13.75;;;;;;;21.32;73.61;94504.19;4185243;28;20044;-47
2022/07/31 00:24:41;;;;;;;14.82;13.18;;;;;;;21.30;73.03;94505.47;4189022;28;20044;-50
2022/07/31 00:26:43;;;;;;;13.98;12.55;;;;;;;21.31;73.22;94501.75;4177200;28;20057;-49
2022/07/31 00:28:46;;;;;;;14.18;11.73;;;;;;;21.22;73.19;94510.06;4174943;28;20057;-50
2022/07/31 00:30:48;;;;;;;12.88;11.13;;;;;;;21.18;73.28;94511.56;4182999;28;20052;-48
2022/07/31 00:32:49;;;;;;;12.43;11.20;;;;;;;21.20;73.33;94501.50;4183331;28;20133;-47
2022/07/31 00:34:52;;;;;;;12.00;10.73;;;;;;;21.19;73.19;94494.56;4182291;28;20091;-48
2022/07/31 00:36:54;;;;;;;12.73;11.13;;;;;;;21.22;73.35;94502.06;4175435;28;20053;-48
2022/07/31 00:38:56;;;;;;;12.15;10.65;;;;;;;21.22;73.16;94510.06;4171497;28;20190;-48
2022/07/31 00:40:57;;;;;;;13.10;10.10;;;;;;;21.25;72.73;94506.97;4179911;28;20052;-48
2022/07/31 00:42:59;;;;;;;11.35;10.25;;;;;;;21.26;72.74;94510.44;4176275;28;20041;-52
2022/07/31 00:45:01;;;;;;;11.68;10.48;;;;;;;21.30;72.95;94513.44;4177017;28;20052;-52
2022/07/31 00:47:03;;;;;;;11.85;10.65;;;;;;;21.26;72.10;94510.44;4174981;28;20045;-52
2022/07/31 00:49:11;;;;;;;11.55;10.07;;;;;;;21.26;72.22;94510.44;4175626;28;20154;-52
2022/07/31 00:51:13;;;;;;;11.23;10.13;;;;;;;21.23;72.42;94501.03;4176452;28;20052;-49
2022/07/31 00:53:14;;;;;;;11.57;10.30;;;;;;;21.22;72.35;94510.06;4174745;28;20053;-52
2022/07/31 00:55:16;;;;;;;12.45;10.43;;;;;;;21.20;72.46;94516.66;4175500;28;20106;-52
2022/07/31 00:57:18;;;;;;;12.77;9.70;;;;;;;21.19;72.17;94512.41;4176335;28;20118;-54
2022/07/31 00:59:20;;;;;;;11.15;10.05;;;;;;;21.13;72.35;94511.44;4176198;28;20052;-52
2022/07/31 01:01:26;;;;;;;11.18;10.07;;;;;;;21.09;72.17;94510.28;4175993;28;20057;-52
2022/07/31 01:03:28;;;;;;;11.07;9.98;;;;;;;21.08;72.35;94511.34;4175294;28;20152;-51
2022/07/31 01:05:30;;;;;;;10.63;9.55;;;;;;;21.09;72.08;94515.59;4176402;28;20055;-52
2022/07/31 01:07:32;;;;;;;11.15;9.73;;;;;;;21.07;71.75;94517.69;4175225;28;20056;-52
2022/07/31 01:09:33;;;;;;;16.08;10.90;;;;;;;21.05;71.62;94525.91;4175393;28;20118;-48
2022/07/31 01:11:43;;;;;;;12.35;11.02;;;;;;;21.01;71.80;94526.59;4175417;28;20049;-53
2022/07/31 01:13:56;;;;;;;12.77;11.48;;;;;;;21.01;71.83;94523.91;4174331;28;20060;-50
2022/07/31 01:15:58;;;;;;;14.05;11.13;;;;;;;20.98;71.65;94519.88;4157583;28;20146;-53
2022/07/31 01:18:00;;;;;;;14.40;10.50;;;;;;;20.94;71.45;94513.38;4190938;28;20393;-52
2022/07/31 01:20:03;;;;;;;11.88;10.07;;;;;;;20.94;71.43;94504.56;4175505;28;20064;-52
2022/07/31 01:22:23;;;;;;;11.60;10.20;;;;;;;20.98;71.47;94508.41;4174873;28;20210;-50
2022/07/31 01:25:03;;;;;;;11.80;10.38;;;;;;;21.01;71.55;94505.28;4174954;28;20394;-52
2022/07/31 01:27:26;;;;;;;12.70;10.40;;;;;;;21.06;71.60;94516.06;4161591;28;20053;-50
2022/07/31 01:29:31;;;;;;;11.80;10.60;;;;;;;21.06;71.47;94526.72;4148406;28;20061;-50
2022/07/31 01:31:52;;;;;;;12.00;10.70;;;;;;;20.99;71.22;94523.34;4173730;28;20083;-51
2022/07/31 01:34:26;;;;;;;15.32;10.98;;;;;;;20.98;71.49;94516.41;4164463;28;20060;-52
2022/07/31 01:36:33;;;;;;;11.88;10.63;;;;;;;21.00;71.72;94516.97;4135615;28;20440;-50
2022/07/31 01:38:38;;;;;;;12.05;10.52;;;;;;;20.98;71.64;94529.72;4183006;28;20354;-54
2022/07/31 01:40:49;;;;;;;14.27;10.70;;;;;;;20.98;71.57;94527.84;4175866;28;20123;-51
2022/07/31 01:42:55;;;;;;;11.90;9.50;;;;;;;20.92;71.33;94515.44;4175299;28;20045;-51
2022/07/31 01:44:59;;;;;;;11.85;9.15;;;;;;;20.91;71.55;94511.19;4185581;28;20421;-52
2022/07/31 01:47:02;;;;;;;13.50;10.63;;;;;;;20.96;71.74;94507.81;4172746;28;20123;-53
2022/07/31 01:49:04;;;;;;;12.00;10.13;;;;;;;21.01;71.42;94508.75;4174796;28;20072;-52
2022/07/31 01:51:07;;;;;;;10.35;9.32;;;;;;;20.97;71.16;94510.28;4174593;28;20455;-50
2022/07/31 01:53:13;;;;;;;11.85;9.80;;;;;;;21.00;71.23;94504.47;4156492;28;20129;-53
2022/07/31 01:55:15;;;;;;;11.70;10.32;;;;;;;21.00;71.22;94501.00;4173000;28;20114;-54
2022/07/31 01:57:17;;;;;;;12.02;10.40;;;;;;;21.01;71.37;94505.28;4177513;28;20056;-52
2022/07/31 01:59:20;;;;;;;14.27;10.45;;;;;;;21.01;71.17;94511.41;4158670;28;20134;-50
2022/07/31 02:01:25;;;;;;;13.23;10.23;;;;;;;21.02;71.30;94510.38;4175100;28;20123;-53
2022/07/31 02:03:28;;;;;;;13.15;10.40;;;;;;;21.03;71.74;94514.66;4175239;28;20140;-51
2022/07/31 02:05:46;;;;;;;13.20;11.07;;;;;;;21.06;71.52;94516.06;4175778;28;20084;-51
2022/07/31 02:07:48;;;;;;;13.27;10.98;;;;;;;21.05;71.28;94515.25;4161778;28;20359;-52
2022/07/31 02:09:51;;;;;;;12.18;10.18;;;;;;;21.06;71.34;94516.88;4166196;28;20420;-54
2022/07/31 02:12:00;;;;;;;10.65;9.50;;;;;;;21.00;71.15;94507.13;4176410;28;20171;-52
2022/07/31 02:14:04;;;;;;;13.70;10.50;;;;;;;20.81;72.30;94519.69;4175089;28;20107;-53
2022/07/31 02:16:06;;;;;;;12.48;10.15;;;;;;;20.70;72.34;94512.50;4174439;28;20053;-50
2022/07/31 02:18:09;;;;;;;14.40;9.80;;;;;;;20.65;72.29;94513.19;4157050;28;20045;-55
2022/07/31 02:20:12;;;;;;;11.48;9.30;;;;;;;20.60;72.10;94514.88;4174654;28;20354;-52
2022/07/31 02:22:14;;;;;;;11.23;9.73;;;;;;;20.62;72.30;94515.47;4156484;28;20045;-51
2022/07/31 02:24:16;;;;;;;8.85;7.93;;;;;;;20.55;71.23;94510.22;4174377;28;20051;-53
2022/07/31 02:26:18;;;;;;;9.85;7.20;;;;;;;20.54;70.35;94518.41;4174981;28;20115;-54
2022/07/31 02:28:21;;;;;;;8.93;7.38;;;;;;;20.48;70.26;94520.13;4174673;28;20527;-52
2022/07/31 02:30:25;;;;;;;10.65;7.95;;;;;;;20.48;70.28;94514.81;4157882;28;20053;-53
2022/07/31 02:32:27;;;;;;;8.77;7.72;;;;;;;20.45;70.55;94518.72;4156942;28;20107;-51
2022/07/31 02:34:30;;;;;;;11.13;9.73;;;;;;;19.58;73.84;94532.16;4173999;28;20126;-52
2022/07/31 02:36:33;;;;;;;12.80;11.20;;;;;;;19.04;75.96;94533.63;4167927;28;20072;-52
2022/07/31 02:38:35;;;;;;;14.02;10.95;;;;;;;18.71;77.97;94533.78;4175644;28;20057;-52
2022/07/31 02:40:38;;;;;;;15.35;11.90;;;;;;;18.57;79.42;94533.06;4188317;28;20080;-52
2022/07/31 02:42:44;;;;;;;15.90;13.02;;;;;;;18.60;79.81;94529.97;4205094;28;20040;-50
2022/07/31 02:44:46;;;;;;;;;;;;;;;18.79;79.47;94528.28;4164357;28;20115;-48
2022/07/31 02:46:48;;;;;;;15.93;13.40;;;;;;;18.86;79.65;94531.69;4166145;28;19968;-52
2022/07/31 02:48:50;;;;;;;17.48;15.57;;;;;;;18.74;80.32;94531.53;4192289;28;20136;-54
2022/07/31 02:50:52;;;;;;;17.15;15.35;;;;;;;18.71;80.70;94531.13;4180343;28;20064;-52
2022/07/31 02:52:54;;;;;;;18.60;16.25;;;;;;;18.65;81.25;94532.00;4189813;28;20566;-53
2022/07/31 02:54:57;;;;;;;18.85;16.20;;;;;;;18.67;81.51;94533.44;4179983;28;20117;-51
2022/07/31 02:56:58;;;;;;;19.40;15.65;;;;;;;18.60;81.88;94535.28;4169406;28;20151;-52
2022/07/31 02:59:01;;;;;;;17.70;15.80;;;;;;;18.59;81.66;94528.38;4186510;28;20407;-54
2022/07/31 03:01:04;;;;;;;19.30;16.75;;;;;;;18.52;82.27;94535.53;4181764;28;20076;-51
2022/07/31 03:03:06;;;;;;;18.58;16.65;;;;;;;18.66;81.99;94528.31;4176713;28;20095;-51
2022/07/31 03:05:08;;;;;;;18.73;16.73;;;;;;;18.89;81.75;94527.81;4193454;28;20097;-51
2022/07/31 03:07:10;;;;;;;17.60;15.80;;;;;;;19.05;80.75;94526.47;4192655;28;20520;-51
2022/07/31 03:09:11;;;;;;;16.48;14.82;;;;;;;19.22;79.63;94532.88;4184468;28;20102;-50
2022/07/31 03:11:13;;;;;;;17.35;15.65;;;;;;;19.09;79.46;94536.44;4176825;28;20057;-55
2022/07/31 03:13:16;;;;;;;17.90;15.55;;;;;;;19.13;78.98;94537.63;4171116;28;20420;-52
2022/07/31 03:15:20;;;;;;;18.40;16.20;;;;;;;19.22;78.92;94533.66;4175390;28;20455;-51
2022/07/31 03:17:22;;;;;;;17.35;15.55;;;;;;;19.14;78.84;94531.28;4175203;28;20599;-54
2022/07/31 03:19:39;;;;;;;18.35;16.30;;;;;;;19.20;79.32;94541.03;4176815;28;20551;-51
2022/07/31 03:21:40;;;;;;;18.33;16.42;;;;;;;19.24;78.88;94536.13;4174184;28;20064;-54
2022/07/31 03:23:42;;;;;;;18.92;16.83;;;;;;;19.27;78.35;94537.53;4160529;28;20042;-54
2022/07/31 03:25:44;;;;;;;19.30;16.63;;;;;;;19.31;78.30;94538.72;4187053;28;20056;-51
2022/07/31 03:27:47;;;;;;;18.83;16.80;;;;;;;19.34;78.28;94547.06;4175668;28;20133;-51
2022/07/31 03:29:57;;;;;;;17.83;14.63;;;;;;;19.14;78.01;94544.56;4188321;28;20496;-48
2022/07/31 03:31:59;;;;;;;16.20;14.35;;;;;;;19.07;78.27;94543.81;4177706;28;20110;-50
2022/07/31 03:34:01;;;;;;;17.10;15.10;;;;;;;18.75;79.31;94551.72;4165501;28;20712;-52
2022/07/31 03:36:03;;;;;;;17.08;14.80;;;;;;;18.60;80.24;94552.00;4177778;28;20792;-48
2022/07/31 03:38:05;;;;;;;18.35;14.57;;;;;;;18.61;80.38;94548.34;4177219;28;20049;-53
2022/07/31 03:40:26;;;;;;;17.85;15.98;;;;;;;18.44;81.21;94552.50;4175611;28;20601;-52
2022/07/31 03:42:28;;;;;;;18.20;16.20;;;;;;;18.50;81.62;94546.38;4171733;28;20114;-51
2022/07/31 03:44:31;;;;;;;17.98;16.08;;;;;;;18.41;81.73;94553.75;4160358;28;20080;-51
2022/07/31 03:46:33;;;;;;;20.67;18.48;;;;;;;18.35;82.00;94548.47;4186871;28;20049;-51
2022/07/31 03:48:35;;;;;;;18.08;16.27;;;;;;;18.26;82.48;94565.63;4167712;28;20045;-51
2022/07/31 03:50:37;;;;;;;17.30;15.60;;;;;;;18.34;82.75;94563.56;4158995;28;20061;-51
2022/07/31 03:52:39;;;;;;;18.05;16.15;;;;;;;18.53;82.32;94556.53;4175437;28;20060;-49
2022/07/31 03:54:41;;;;;;;14.65;12.77;;;;;;;18.64;80.43;94565.66;4175434;28;20510;-53
2022/07/31 03:56:47;;;;;;;16.08;12.38;;;;;;;18.73;79.04;94560.94;4176159;28;20412;-52
2022/07/31 03:58:49;;;;;;;13.45;11.90;;;;;;;18.85;78.67;94569.88;4176134;28;20080;-50
2022/07/31 04:00:53;;;;;;;12.50;11.23;;;;;;;18.82;78.36;94576.44;4176080;28;20140;-54
2022/07/31 04:02:56;;;;;;;12.38;11.13;;;;;;;18.87;77.95;94570.47;4172926;28;20052;-53
2022/07/31 04:04:58;;;;;;;12.48;10.88;;;;;;;18.94;78.03;94562.47;4175261;28;20160;-52
2022/07/31 04:07:00;;;;;;;12.75;11.25;;;;;;;19.05;77.52;94567.09;4175289;28;20469;-53
2022/07/31 04:09:02;;;;;;;13.05;10.98;;;;;;;19.02;77.21;94565.69;4175356;28;20573;-52
2022/07/31 04:11:19;;;;;;;13.95;12.13;;;;;;;19.02;77.55;94570.19;4175658;28;20490;-52
2022/07/31 04:13:20;;;;;;;15.60;12.15;;;;;;;19.05;77.81;94567.09;4177200;28;20053;-53
2022/07/31 04:15:22;;;;;;;13.98;12.05;;;;;;;19.13;77.70;94579.31;4177553;28;20049;-51
2022/07/31 04:17:24;;;;;;;14.90;13.20;;;;;;;19.23;77.48;94577.81;4177864;28;20052;-53
2022/07/31 04:19:29;;;;;;;16.17;14.43;;;;;;;19.21;77.35;94573.75;4177743;28;20058;-53
2022/07/31 04:21:31;;;;;;;15.48;13.55;;;;;;;19.21;77.69;94573.75;4178079;28;20264;-57
2022/07/31 04:23:33;;;;;;;17.80;14.25;;;;;;;19.17;77.44;94568.03;4175130;28;20277;-50
2022/07/31 04:25:34;;;;;;;17.52;14.07;;;;;;;19.23;77.83;94567.19;4177511;28;20521;-51
2022/07/31 04:27:36;;;;;;;16.42;13.77;;;;;;;19.38;77.14;94561.56;4176390;28;20114;-51
2022/07/31 04:29:49;;;;;;;18.50;14.35;;;;;;;19.47;77.00;94566.56;4177825;28;20080;-54
2022/07/31 04:31:54;;;;;;;16.88;13.38;;;;;;;19.52;76.54;94564.09;4175205;28;20053;-53
2022/07/31 04:33:56;;;;;;;15.63;12.63;;;;;;;19.53;76.19;94557.72;4176699;28;20220;-51
2022/07/31 04:35:58;;;;;;;15.50;12.77;;;;;;;19.63;75.75;94556.19;4175806;28;20087;-50
2022/07/31 04:38:00;;;;;;;14.23;11.05;;;;;;;19.69;75.20;94556.38;4179233;28;20049;-53
2022/07/31 04:40:02;;;;;;;13.40;11.77;;;;;;;19.80;74.46;94564.47;4184593;28;20125;-52
2022/07/31 04:42:04;;;;;;;13.50;11.82;;;;;;;19.81;74.79;94557.28;4174965;28;20102;-49
2022/07/31 04:44:11;;;;;;;12.70;11.10;;;;;;;19.94;74.51;94556.34;4174412;28;20044;-52
2022/07/31 04:46:13;;;;;;;13.95;11.15;;;;;;;20.02;73.87;94554.22;4175322;28;20053;-54
2022/07/31 04:48:18;;;;;;;11.95;10.13;;;;;;;20.12;73.53;94547.59;4175219;28;20087;-50
2022/07/31 04:50:20;;;;;;;12.38;10.98;;;;;;;20.17;73.40;94567.16;4175427;28;20406;-50
2022/07/31 04:52:21;;;;;;;11.98;10.43;;;;;;;20.16;73.18;94554.09;4173871;28;20053;-52
2022/07/31 04:54:23;;;;;;;11.25;10.05;;;;;;;20.07;73.41;94556.22;4174689;28;20063;-51
2022/07/31 04:56:41;;;;;;;11.88;10.10;;;;;;;20.10;73.35;94558.44;4175433;28;20162;-53
2022/07/31 04:58:42;;;;;;;13.00;10.32;;;;;;;20.16;73.49;94559.41;4175426;28;20060;-53
2022/07/31 05:00:44;;;;;;;11.73;10.02;;;;;;;20.08;74.05;94573.81;4175113;28;20182;-54
2022/07/31 05:02:46;;;;;;;10.55;9.45;;;;;;;20.10;73.58;94570.94;4175370;28;20056;-50
2022/07/31 05:04:47;;;;;;;12.65;9.70;;;;;;;20.15;73.43;94576.38;4174330;28;20412;-55
2022/07/31 05:06:57;;;;;;;13.55;9.57;;;;;;;20.17;72.68;94572.47;4174777;28;20130;-52
2022/07/31 05:08:59;;;;;;;14.02;9.27;;;;;;;20.22;72.65;94577.16;4174771;28;20049;-51
2022/07/31 05:11:22;;;;;;;10.50;9.40;;;;;;;20.31;72.28;94575.00;4175832;28;20052;-49
2022/07/31 05:13:23;;;;;;;10.57;9.52;;;;;;;20.44;72.16;94580.97;4174897;28;20053;-52
2022/07/31 05:15:26;;;;;;;12.63;8.68;;;;;;;20.48;71.75;94569.84;4180522;28;20052;-53
2022/07/31 05:17:27;;;;;;;10.55;9.50;;;;;;;20.45;71.49;94573.78;4191635;28;20075;-50
2022/07/31 05:19:29;;;;;;;9.40;8.43;;;;;;;20.49;71.54;94568.84;4191634;28;20148;-48
2022/07/31 05:21:31;;;;;;;8.65;7.82;;;;;;;20.55;71.34;94565.28;4191625;28;20551;-50
2022/07/31 05:23:33;;;;;;;9.80;8.88;;;;;;;20.57;71.20;94563.22;4187618;28;20139;-50
2022/07/31 05:25:35;;;;;;;8.95;8.02;;;;;;;20.57;71.02;94566.72;4175011;28;20056;-50
2022/07/31 05:27:37;;;;;;;9.18;8.27;;;;;;;20.60;70.56;94565.44;4174953;28;20045;-49
2022/07/31 05:29:41;;;;;;;9.20;8.27;;;;;;;20.46;71.26;94570.91;4175191;28;20464;-52
2022/07/31 05:31:43;;;;;;;8.85;7.95;;;;;;;20.52;71.09;94573.69;4174664;28;20158;-55
2022/07/31 05:34:01;;;;;;;8.57;7.68;;;;;;;20.50;71.06;94570.44;4171898;28;20122;-51
2022/07/31 05:36:03;;;;;;;9.25;8.23;;;;;;;20.58;70.75;94563.00;4177587;28;20172;-55
2022/07/31 05:38:05;;;;;;;9.13;8.00;;;;;;;20.63;70.04;94565.03;4186336;28;20045;-53
2022/07/31 05:40:12;;;;;;;9.68;8.68;;;;;;;20.58;70.77;94560.34;4172877;28;20053;-52
2022/07/31 05:42:14;;;;;;;9.30;8.30;;;;;;;20.68;69.95;94570.47;4174812;28;20111;-52
2022/07/31 05:44:15;;;;;;;9.05;8.15;;;;;;;20.77;69.66;94565.63;4167396;28;20087;-49
2022/07/31 05:46:17;;;;;;;10.85;9.15;;;;;;;20.66;69.13;94561.91;4174209;28;20053;-50
2022/07/31 05:48:19;;;;;;;11.50;8.95;;;;;;;20.67;69.48;94568.81;4174326;28;20103;-50
2022/07/31 05:50:21;;;;;;;11.32;9.05;;;;;;;20.79;68.90;94559.03;4174813;28;20058;-50
2022/07/31 05:52:23;;;;;;;10.43;9.38;;;;;;;20.86;68.37;94561.63;4173924;28;20489;-51
2022/07/31 05:54:25;;;;;;;11.18;9.15;;;;;;;20.83;68.15;94564.75;4187520;28;20063;-51
2022/07/31 05:56:27;;;;;;;10.80;9.55;;;;;;;20.98;67.88;94564.34;4186522;28;20424;-55
2022/07/31 05:58:28;;;;;;;10.05;8.52;;;;;;;21.01;68.08;94566.53;4174892;28;20072;-52
2022/07/31 06:00:30;;;;;;;12.20;10.13;;;;;;;20.99;67.91;94564.13;4175123;28;20201;-50
2022/07/31 06:02:33;;;;;;;10.93;9.77;;;;;;;21.02;67.78;94568.97;4174266;28;20136;-49
2022/07/31 06:04:35;;;;;;;12.57;10.45;;;;;;;20.94;67.77;94577.28;4174290;28;20091;-48
2022/07/31 06:06:36;;;;;;;11.50;10.30;;;;;;;21.07;67.57;94570.94;4174748;28;20395;-51
2022/07/31 06:08:38;;;;;;;11.32;10.20;;;;;;;21.24;67.20;94577.25;4186616;28;20380;-51
2022/07/31 06:10:40;;;;;;;12.45;9.80;;;;;;;21.39;66.68;94566.16;4174743;28;20053;-50
2022/07/31 06:12:42;;;;;;;11.32;9.38;;;;;;;21.37;66.53;94562.91;4175303;28;20053;-51
2022/07/31 06:14:44;;;;;;;13.77;9.48;;;;;;;21.54;66.17;94562.28;4178331;28;20041;-53
2022/07/31 06:16:48;;;;;;;12.23;9.77;;;;;;;21.78;65.75;94565.75;4173794;28;20056;-49
2022/07/31 06:18:50;;;;;;;12.25;9.77;;;;;;;21.83;64.92;94561.38;4178361;28;20412;-50
2022/07/31 06:20:52;;;;;;;10.85;9.43;;;;;;;21.94;65.26;94565.06;4182484;28;20067;-52
2022/07/31 06:22:54;;;;;;;10.82;9.73;;;;;;;22.11;64.47;94572.34;4181095;28;20489;-54
2022/07/31 06:24:56;;;;;;;10.85;9.38;;;;;;;22.15;63.81;94568.16;3475834;28;10000131;-58
2022/07/31 06:26:58;;;;;;;11.57;10.40;;;;;;;22.42;63.53;94569.31;4176795;28;20056;-53
2022/07/31 06:29:00;;;;;;;11.57;10.27;;;;;;;22.16;63.77;94567.13;4177391;28;20140;-51
2022/07/31 06:31:02;;;;;;;12.43;10.68;;;;;;;22.22;64.21;94560.84;4185492;28;20437;-51
2022/07/31 06:33:03;;;;;;;11.93;10.30;;;;;;;22.13;64.06;94559.59;4185732;28;20049;-52
2022/07/31 06:35:10;;;;;;;13.05;11.40;;;;;;;22.06;64.52;94560.53;4182066;28;20049;-52
2022/07/31 06:37:12;;;;;;;14.35;11.32;;;;;;;21.96;64.84;94559.50;4183944;28;20041;-55
2022/07/31 06:39:13;;;;;;;13.82;11.15;;;;;;;21.88;65.59;94561.47;4185320;28;20052;-52
2022/07/31 06:43:35;;;;;;;14.45;12.02;;;;;;;22.06;65.19;94552.50;4178520;28;20206;-51
2022/07/31 06:45:40;;;;;;;12.85;11.48;;;;;;;22.02;65.33;94561.22;4182459;28;20113;-51
2022/07/31 06:47:53;;;;;;;12.30;11.00;;;;;;;22.06;65.18;94557.84;4177213;28;20061;-50
2022/07/31 06:49:55;;;;;;;15.07;11.85;;;;;;;22.11;64.83;94559.81;4178043;28;20485;-50
2022/07/31 06:51:56;;;;;;;13.15;11.73;;;;;;;22.00;65.05;94561.44;4177518;28;20053;-55
2022/07/31 06:54:04;;;;;;;17.67;12.68;;;;;;;21.97;64.94;94559.25;4176400;28;20427;-53
2022/07/31 06:56:10;;;;;;;14.80;12.75;;;;;;;22.08;64.82;94561.09;3990478;28;10000611;-54
2022/07/31 06:58:12;;;;;;;13.65;12.15;;;;;;;22.18;64.66;94567.72;3824139;28;10000735;-57
2022/07/31 07:00:14;;;;;;;16.95;12.68;;;;;;;22.35;64.71;94573.97;4168569;28;20125;-51
2022/07/31 07:02:21;;;;;;;17.23;12.52;;;;;;;22.47;64.21;94574.75;4186624;28;20079;-53
2022/07/31 07:04:23;;;;;;;14.85;12.82;;;;;;;22.47;64.60;94580.09;4177817;28;20114;-54
2022/07/31 07:06:44;;;;;;;15.60;12.70;;;;;;;22.44;64.16;94575.22;3826465;28;10000122;-54
2022/07/31 07:08:46;;;;;;;15.38;12.32;;;;;;;22.43;63.78;94580.78;4186312;28;20107;-53
2022/07/31 07:10:48;;;;;;;16.30;13.18;;;;;;;22.54;63.96;94574.59;4187560;28;20485;-50
2022/07/31 07:12:49;;;;;;;14.95;11.88;;;;;;;22.52;62.89;94586.56;4189011;28;20052;-54
2022/07/31 07:14:51;;;;;;;16.23;12.90;;;;;;;22.55;63.74;94591.47;4179341;28;20136;-52
2022/07/31 07:16:53;;;;;;;15.90;12.80;;;;;;;22.73;63.18;94591.28;3826625;28;9999750;-52
2022/07/31 07:18:55;;;;;;;17.17;13.52;;;;;;;22.04;65.27;94583.94;4177424;28;20057;-51
2022/07/31 07:20:57;;;;;;;17.90;13.52;;;;;;;21.97;65.80;94582.47;4178074;28;20052;-53
2022/07/31 07:22:58;;;;;;;15.10;13.50;;;;;;;21.64;66.98;94587.31;4176608;28;20114;-53
2022/07/31 07:25:00;;;;;;;15.43;13.25;;;;;;;21.82;66.48;94581.06;4176883;28;20048;-55
2022/07/31 07:27:02;;;;;;;15.65;13.43;;;;;;;22.06;65.68;94581.84;4177284;28;20049;-52
2022/07/31 07:29:04;;;;;;;18.48;13.77;;;;;;;22.27;64.86;94585.81;4178882;28;20119;-52
2022/07/31 07:31:05;;;;;;;14.98;12.73;;;;;;;22.44;64.91;94585.91;4182557;28;20621;-55
2022/07/31 07:33:07;;;;;;;15.25;13.23;;;;;;;22.51;63.89;94598.31;4184692;28;20061;-56
2022/07/31 07:35:11;;;;;;;14.98;13.20;;;;;;;22.49;63.73;94594.00;4182219;28;20111;-51
2022/07/31 07:37:12;;;;;;;16.08;14.32;;;;;;;22.26;65.15;94594.03;4176615;28;20049;-54
2022/07/31 07:39:14;;;;;;;20.58;14.40;;;;;;;22.24;65.23;94585.47;4179297;28;20049;-44
2022/07/31 07:41:16;;;;;;;16.45;14.68;;;;;;;22.40;64.92;94586.63;4177852;28;20206;-46
2022/07/31 07:43:19;;;;;;;17.50;13.43;;;;;;;22.48;64.62;94595.06;4177569;28;20045;-50
2022/07/31 07:45:21;;;;;;;19.83;14.85;;;;;;;22.73;64.85;94580.59;4174743;28;20045;-49
2022/07/31 07:47:23;;;;;;;23.70;13.90;;;;;;;22.80;63.98;94575.09;4184765;28;20548;-47
2022/07/31 07:49:24;;;;;;;16.77;12.73;;;;;;;22.86;63.87;94577.63;4180192;28;20174;-46
2022/07/31 07:51:26;;;;;;;16.85;13.10;;;;;;;22.89;64.27;94587.06;4182346;28;20129;-46
2022/07/31 07:53:28;;;;;;;15.73;11.20;;;;;;;22.83;63.67;94578.13;4182543;28;20061;-47
2022/07/31 07:55:29;;;;;;;12.63;10.73;;;;;;;22.80;63.63;94585.78;4182493;28;20049;-46
2022/07/31 07:57:38;;;;;;;13.20;10.48;;;;;;;22.59;64.32;94587.28;4181852;28;20139;-49
2022/07/31 07:59:41;;;;;;;15.63;10.02;;;;;;;22.65;64.06;94595.16;4177348;28;20124;-49
2022/07/31 08:01:42;;;;;;;11.25;9.30;;;;;;;22.59;64.31;94590.75;4187402;28;20079;-48
2022/07/31 08:03:44;;;;;;;10.63;9.05;;;;;;;22.50;64.86;94592.16;4192599;28;20110;-49
2022/07/31 08:05:52;;;;;;;11.10;8.50;;;;;;;22.54;63.73;94595.97;4192408;28;20083;-45
2022/07/31 08:07:53;;;;;;;10.50;8.30;;;;;;;22.46;64.55;94593.69;4191603;28;20044;-46
2022/07/31 08:09:56;;;;;;;11.52;9.88;;;;;;;22.52;64.62;94599.91;4190283;28;20090;-48
2022/07/31 08:11:59;;;;;;;12.93;10.32;;;;;;;22.73;64.35;94598.47;4191546;28;20059;-48
2022/07/31 08:14:01;;;;;;;14.93;11.53;;;;;;;22.41;65.28;94601.56;4168777;28;20163;-46
2022/07/31 08:16:02;;;;;;;14.25;11.02;;;;;;;22.27;66.07;94601.03;4177157;28;20281;-49
2022/07/31 08:18:23;;;;;;;13.65;9.73;;;;;;;21.79;67.29;94605.53;4176877;28;20118;-46
2022/07/31 08:20:29;;;;;;;15.80;12.00;;;;;;;21.65;67.63;94604.13;4165724;28;20045;-47
2022/07/31 08:22:30;;;;;;;14.60;9.43;;;;;;;21.75;67.51;94600.91;4176245;28;20125;-51
2022/07/31 08:24:32;;;;;;;11.65;9.38;;;;;;;21.80;66.67;94603.69;4176215;28;20049;-50
2022/07/31 08:28:54;;;;;;;11.00;8.82;;;;;;;22.13;65.89;94602.28;4164302;28;20153;-48
2022/07/31 08:30:56;;;;;;;10.63;8.18;;;;;;;22.31;65.31;94601.38;4176139;28;20049;-54
2022/07/31 08:32:58;;;;;;;11.50;9.25;;;;;;;22.46;64.51;94599.03;4176887;28;20052;-54
2022/07/31 08:35:01;;;;;;;10.32;8.68;;;;;;;22.61;64.84;94601.19;4175426;28;20136;-53
2022/07/31 08:37:05;;;;;;;12.27;10.23;;;;;;;22.74;64.69;94600.91;4176214;28;20057;-51
2022/07/31 08:39:27;;;;;;;11.57;9.60;;;;;;;22.84;63.97;94606.47;4177041;28;20065;-51
2022/07/31 08:41:29;;;;;;;10.10;8.95;;;;;;;22.82;64.01;94613.91;4177142;28;20053;-51
2022/07/31 08:43:30;;;;;;;10.73;8.95;;;;;;;22.81;63.57;94608.78;4165631;28;20049;-56
2022/07/31 08:45:52;;;;;;;12.85;9.20;;;;;;;22.87;63.77;94610.53;4179017;28;20081;-52
2022/07/31 08:47:55;;;;;;;11.02;9.02;;;;;;;23.10;62.66;94606.94;4154058;28;20425;-54
2022/07/31 08:49:57;;;;;;;10.43;9.32;;;;;;;23.19;62.56;94612.72;4158435;28;20079;-52
2022/07/31 08:52:00;;;;;;;9.63;8.63;;;;;;;23.28;62.25;94600.63;4174340;28;20135;-52
2022/07/31 08:54:09;;;;;;;11.57;9.35;;;;;;;23.44;61.79;94610.50;4158184;28;20049;-54
2022/07/31 08:56:11;;;;;;;10.57;9.48;;;;;;;23.75;61.12;94604.84;4190139;28;20064;-54
2022/07/31 08:58:13;;;;;;;11.02;9.65;;;;;;;23.97;60.05;94591.59;4189710;28;20150;-53
2022/07/31 09:00:16;;;;;;;10.95;9.82;;;;;;;24.06;59.59;94596.25;4174449;28;20044;-52
2022/07/31 09:02:18;;;;;;;14.00;10.13;;;;;;;24.18;59.20;94600.69;4176772;28;20049;-55
2022/07/31 09:04:19;;;;;;;10.93;9.50;;;;;;;24.04;59.12;94603.72;4165675;28;20057;-52
2022/07/31 09:06:21;;;;;;;11.18;9.82;;;;;;;23.93;59.42;94604.63;4186137;28;20097;-55
2022/07/31 09:08:23;;;;;;;13.23;10.50;;;;;;;23.70;60.37;94600.22;4175104;28;20110;-53
2022/07/31 09:10:26;;;;;;;10.63;9.52;;;;;;;23.79;59.75;94598.81;4176342;28;20049;-56
2022/07/31 09:12:32;;;;;;;10.90;9.05;;;;;;;23.70;59.94;94613.59;4176538;28;20114;-53
2022/07/31 09:14:35;;;;;;;13.98;11.07;;;;;;;23.54;59.99;94606.41;4183282;28;20509;-54
2022/07/31 09:16:45;;;;;;;11.90;9.88;;;;;;;23.50;60.31;94603.38;4175113;28;20056;-53
2022/07/31 09:19:01;;;;;;;11.88;10.32;;;;;;;23.41;60.84;94607.50;4176186;28;20180;-52
2022/07/31 09:21:23;;;;;;;13.43;11.93;;;;;;;23.28;60.80;94605.97;4171744;28;20056;-51
2022/07/31 09:23:26;;;;;;;20.83;12.93;;;;;;;23.35;60.95;94603.94;4179096;28;20045;-51
2022/07/31 09:25:28;;;;;;;14.65;12.85;;;;;;;23.44;60.57;94605.16;4180701;28;20145;-51
2022/07/31 09:27:30;;;;;;;14.75;12.40;;;;;;;23.60;59.72;94605.44;4176409;28;20057;-51
2022/07/31 09:29:39;;;;;;;15.98;13.18;;;;;;;23.73;59.26;94602.44;4178717;28;20057;-52
2022/07/31 09:31:41;;;;;;;17.27;14.07;;;;;;;23.74;59.20;94592.53;4177655;28;20110;-54
2022/07/31 09:33:45;;;;;;;16.67;14.18;;;;;;;23.88;59.13;94591.19;4179649;28;20452;-54
2022/07/31 09:35:51;;;;;;;14.98;13.35;;;;;;;24.08;57.56;94588.78;4176262;28;20477;-51